Time;durP1;ratioP1;P1;durP2;ratioP2;P2;SDS_P1;SDS_P2;PMS_P1;PMS_P2;Temp;Humidity;BMP_temperature;BMP_pressure;BME280_temperature;BME280_humidity;BME280_pressure;Samples;Min_cycle;Max_cycle;Signal;HPM_P1;HPM_P2
2021/03/25 00:01:28;;;;;;;114.45;87.40;;;2.70;99.90;;;;;;4994850;28;20422;-86
2021/03/25 00:03:55;;;;;;;114.32;84.85;;;2.70;99.90;;;;;;4994993;28;20395;-87
2021/03/25 00:06:22;;;;;;;108.10;84.63;;;2.70;99.90;;;;;;4994875;28;20371;-89
2021/03/25 00:08:48;;;;;;;110.32;85.38;;;2.60;99.90;;;;;;4994423;28;20566;-86
2021/03/25 00:11:13;;;;;;;109.93;83.28;;;2.60;99.90;;;;;;5011504;28;20421;-86
2021/03/25 00:13:39;;;;;;;105.25;81.30;;;2.60;99.90;;;;;;5012051;28;20387;-87
2021/03/25 00:16:06;;;;;;;121.10;87.57;;;2.50;99.90;;;;;;4994400;28;20909;-86
2021/03/25 00:18:32;;;;;;;110.63;84.40;;;2.50;99.90;;;;;;4994568;28;20378;-87
2021/03/25 00:20:58;;;;;;;113.65;86.70;;;2.50;99.90;;;;;;4994433;28;20770;-88
2021/03/25 00:23:24;;;;;;;109.43;82.28;;;2.50;99.90;;;;;;4994417;28;20766;-86
2021/03/25 00:25:49;;;;;;;109.10;82.00;;;2.50;99.90;;;;;;5012070;28;20412;-86
2021/03/25 00:28:17;;;;;;;114.70;85.72;;;2.40;99.90;;;;;;4994323;28;20387;-86
2021/03/25 00:30:44;;;;;;;109.70;83.88;;;2.40;99.90;;;;;;5011602;28;20386;-88
2021/03/25 00:33:13;;;;;;;107.75;83.18;;;2.40;99.90;;;;;;4994279;28;20379;-88
2021/03/25 00:35:39;;;;;;;106.30;78.25;;;2.40;99.90;;;;;;4994173;28;20383;-88
2021/03/25 00:38:06;;;;;;;104.78;81.30;;;2.40;99.90;;;;;;4993842;28;20434;-88
2021/03/25 00:40:31;;;;;;;115.57;87.03;;;2.40;99.90;;;;;;4993682;28;20376;-87
2021/03/25 00:42:57;;;;;;;109.10;82.63;;;2.30;99.90;;;;;;5011355;28;20438;-88
2021/03/25 00:45:23;;;;;;;102.10;78.38;;;2.30;99.90;;;;;;4993987;28;20761;-87
2021/03/25 00:47:48;;;;;;;107.87;83.37;;;2.30;99.90;;;;;;5011646;28;20386;-87
2021/03/25 00:50:35;;;;;;;108.27;82.13;;;2.30;99.90;;;;;;4993755;28;20380;-87
2021/03/25 00:53:03;;;;;;;111.47;85.00;;;2.30;99.90;;;;;;5011159;28;20458;-87
2021/03/25 00:55:28;;;;;;;113.00;84.47;;;2.30;99.90;;;;;;4993714;28;20383;-86
2021/03/25 00:57:54;;;;;;;113.18;83.60;;;2.30;99.90;;;;;;5011096;28;20453;-88
2021/03/25 01:00:24;;;;;;;105.28;80.88;;;2.30;99.90;;;;;;4993949;28;20415;-88
2021/03/25 01:02:49;;;;;;;108.45;82.68;;;2.20;99.90;;;;;;4993731;28;20392;-86
2021/03/25 01:05:15;;;;;;;108.63;84.05;;;2.20;99.90;;;;;;4993830;28;20390;-86
2021/03/25 01:07:41;;;;;;;108.15;82.47;;;2.20;99.90;;;;;;5011042;28;20955;-87
2021/03/25 01:10:21;;;;;;;107.35;81.95;;;2.20;99.90;;;;;;5011123;28;20406;-89
2021/03/25 01:12:47;;;;;;;109.45;83.95;;;2.20;99.90;;;;;;4993603;28;20392;-87
2021/03/25 01:15:13;;;;;;;110.97;81.60;;;2.20;99.90;;;;;;5011065;28;20889;-87
2021/03/25 01:17:45;;;;;;;107.85;79.60;;;2.20;99.90;;;;;;4993087;28;20422;-86
2021/03/25 01:20:21;;;;;;;110.10;82.90;;;2.10;99.90;;;;;;5010943;28;20495;-87
2021/03/25 01:22:47;;;;;;;116.22;84.97;;;2.10;99.90;;;;;;5010781;28;20410;-87
2021/03/25 01:25:14;;;;;;;105.17;80.07;;;2.20;99.90;;;;;;5010817;28;20738;-87
2021/03/25 01:27:39;;;;;;;106.72;80.05;;;2.10;99.90;;;;;;4993288;28;20811;-87
2021/03/25 01:30:06;;;;;;;110.85;83.63;;;2.10;99.90;;;;;;4993457;28;20453;-86
2021/03/25 01:32:31;;;;;;;111.90;84.72;;;2.10;99.90;;;;;;4993152;28;20394;-85
2021/03/25 01:34:57;;;;;;;119.53;88.67;;;2.10;99.90;;;;;;4993287;28;20379;-87
2021/03/25 01:37:22;;;;;;;108.63;81.73;;;2.10;99.90;;;;;;4992767;28;20557;-88
2021/03/25 01:39:50;;;;;;;119.00;87.57;;;2.20;99.90;;;;;;4993289;28;21176;-89
2021/03/25 01:42:28;;;;;;;112.75;83.28;;;2.10;99.90;;;;;;5010609;28;20510;-86
2021/03/25 01:44:54;;;;;;;116.00;85.25;;;2.10;99.90;;;;;;5010545;28;20441;-86
2021/03/25 01:47:20;;;;;;;111.22;83.13;;;2.00;99.90;;;;;;4992986;28;20395;-86
2021/03/25 01:49:45;;;;;;;109.43;83.68;;;2.00;99.90;;;;;;4992817;28;20858;-88
2021/03/25 01:52:23;;;;;;;111.47;82.77;;;2.00;99.90;;;;;;5010633;28;20466;-88
2021/03/25 01:55:04;;;;;;;118.00;85.43;;;2.00;99.90;;;;;;5010483;28;20383;-88
2021/03/25 01:57:55;;;;;;;116.75;85.93;;;1.90;99.90;;;;;;4992595;28;20797;-85
2021/03/25 02:00:23;;;;;;;114.88;84.93;;;1.90;99.90;;;;;;4992920;28;20885;-88
2021/03/25 02:03:12;;;;;;;115.88;85.60;;;1.90;99.90;;;;;;4992779;28;20728;-86
2021/03/25 02:06:06;;;;;;;127.10;90.20;;;1.80;99.90;;;;;;4996248;28;20426;-87
2021/03/25 02:08:43;;;;;;;130.23;93.32;;;1.80;99.90;;;;;;4996551;28;20870;-87
2021/03/25 02:11:24;;;;;;;117.60;84.95;;;1.80;99.90;;;;;;5014347;28;20377;-87
2021/03/25 02:14:10;;;;;;;122.35;87.38;;;1.80;99.90;;;;;;4996417;28;20481;-87
2021/03/25 02:16:43;;;;;;;118.05;85.20;;;1.80;99.90;;;;;;4996764;28;20411;-88
2021/03/25 02:19:43;;;;;;;109.72;82.75;;;1.90;99.90;;;;;;4996983;28;20390;-87
2021/03/25 02:22:20;;;;;;;105.57;77.67;;;1.80;99.90;;;;;;5014257;28;20553;-88
2021/03/25 02:25:07;;;;;;;113.43;83.93;;;1.80;99.90;;;;;;4996555;28;20383;-86
2021/03/25 02:27:45;;;;;;;105.68;78.38;;;1.80;99.90;;;;;;4996520;28;20399;-86
2021/03/25 02:30:16;;;;;;;120.97;86.05;;;1.80;99.90;;;;;;5013995;28;20371;-87
2021/03/25 02:32:52;;;;;;;122.10;88.20;;;1.80;99.90;;;;;;5013587;28;20944;-88
2021/03/25 02:35:35;;;;;;;111.07;80.80;;;1.80;99.90;;;;;;4996338;28;20391;-86
2021/03/25 02:38:38;;;;;;;112.40;82.60;;;1.80;99.90;;;;;;4996248;28;20414;-87
2021/03/25 02:41:15;;;;;;;121.57;88.05;;;1.80;99.90;;;;;;5013976;28;20426;-87
2021/03/25 02:43:49;;;;;;;129.98;90.50;;;1.70;99.90;;;;;;5013905;28;20383;-87
2021/03/25 02:46:28;;;;;;;112.20;79.38;;;1.70;99.90;;;;;;4996248;28;20434;-86
2021/03/25 02:49:01;;;;;;;124.38;86.78;;;1.80;99.90;;;;;;4996093;28;20395;-86
2021/03/25 02:51:46;;;;;;;119.28;85.53;;;1.70;99.90;;;;;;5013641;28;20722;-89
2021/03/25 02:54:11;;;;;;;118.68;85.82;;;1.70;99.90;;;;;;5013707;28;20483;-86
2021/03/25 02:56:57;;;;;;;113.88;81.35;;;1.70;99.90;;;;;;5013664;28;20502;-88
2021/03/25 02:59:27;;;;;;;131.85;91.28;;;1.70;99.90;;;;;;4995893;28;20398;-86
2021/03/25 03:01:57;;;;;;;131.32;93.25;;;1.70;99.90;;;;;;4995691;28;20398;-87
2021/03/25 03:04:30;;;;;;;130.30;91.45;;;1.70;99.90;;;;;;4995732;28;20371;-88
2021/03/25 03:07:09;;;;;;;122.97;87.40;;;1.70;99.90;;;;;;5013693;28;20738;-87
2021/03/25 03:09:41;;;;;;;112.53;81.72;;;1.60;99.90;;;;;;5013421;28;20379;-87
2021/03/25 03:12:16;;;;;;;109.93;80.00;;;1.60;99.90;;;;;;4995676;28;20474;-88
2021/03/25 03:14:52;;;;;;;120.75;87.50;;;1.60;99.90;;;;;;4995155;28;20404;-86
2021/03/25 03:17:25;;;;;;;120.88;87.38;;;1.60;99.90;;;;;;4995437;28;20471;-86
2021/03/25 03:20:24;;;;;;;123.75;90.00;;;1.60;99.90;;;;;;4995421;28;20383;-87
2021/03/25 03:22:51;;;;;;;109.65;80.28;;;1.50;99.90;;;;;;4995670;28;20423;-86
2021/03/25 03:25:21;;;;;;;118.27;86.40;;;1.60;99.90;;;;;;4995359;28;20414;-86
2021/03/25 03:28:12;;;;;;;116.97;84.63;;;1.50;99.90;;;;;;4995562;28;20956;-88
2021/03/25 03:30:46;;;;;;;106.00;79.27;;;1.50;99.90;;;;;;4995220;28;20386;-86
2021/03/25 03:33:37;;;;;;;108.30;81.53;;;1.50;99.90;;;;;;4995366;28;20395;-86
2021/03/25 03:36:08;;;;;;;114.18;83.75;;;1.50;99.90;;;;;;5011821;28;20435;-87
2021/03/25 03:38:40;;;;;;;108.25;81.10;;;1.50;99.90;;;;;;4994955;28;20418;-84
2021/03/25 03:41:07;;;;;;;116.85;84.10;;;1.50;99.90;;;;;;4995303;28;20470;-87
2021/03/25 03:43:35;;;;;;;116.57;82.43;;;1.50;99.90;;;;;;5012531;28;20375;-86
2021/03/25 03:46:09;;;;;;;107.05;79.97;;;1.40;99.90;;;;;;5012418;28;20402;-85
2021/03/25 03:48:46;;;;;;;115.00;82.85;;;1.40;99.90;;;;;;5012161;28;20426;-86
2021/03/25 03:51:21;;;;;;;119.63;86.65;;;1.40;99.90;;;;;;5012532;28;20379;-88
2021/03/25 03:53:47;;;;;;;116.27;81.90;;;1.40;99.90;;;;;;4994791;28;20398;-88
2021/03/25 03:56:36;;;;;;;115.87;83.10;;;1.40;99.90;;;;;;4994662;28;20734;-85
2021/03/25 03:59:09;;;;;;;112.28;81.38;;;1.30;99.90;;;;;;4994770;28;20387;-88
2021/03/25 04:01:47;;;;;;;130.40;90.15;;;1.30;99.90;;;;;;4995064;28;20921;-86
2021/03/25 04:04:36;;;;;;;126.47;88.95;;;1.20;99.90;;;;;;4994863;28;20387;-86
2021/03/25 04:07:06;;;;;;;146.27;97.60;;;1.20;99.90;;;;;;4995077;28;20483;-87
2021/03/25 04:09:43;;;;;;;130.10;90.18;;;1.10;99.90;;;;;;4994519;28;20391;-89
2021/03/25 04:12:13;;;;;;;135.63;92.85;;;1.00;99.90;;;;;;4994794;28;20937;-89
2021/03/25 04:14:45;;;;;;;120.77;85.97;;;1.00;99.90;;;;;;5011882;28;20399;-87
2021/03/25 04:17:17;;;;;;;119.82;83.97;;;1.10;99.90;;;;;;4994383;28;20407;-88
2021/03/25 04:19:48;;;;;;;123.07;85.30;;;1.10;99.90;;;;;;5011826;28;20478;-87
2021/03/25 04:22:23;;;;;;;129.15;88.95;;;1.10;99.90;;;;;;4994369;28;20387;-86
2021/03/25 04:24:55;;;;;;;132.13;90.60;;;1.00;99.90;;;;;;4994386;28;20943;-85
2021/03/25 04:27:25;;;;;;;121.55;86.47;;;1.00;99.90;;;;;;5011307;28;20414;-87
2021/03/25 04:30:16;;;;;;;133.40;90.10;;;0.90;99.90;;;;;;4994244;28;20415;-87
2021/03/25 04:32:43;;;;;;;124.13;84.53;;;1.00;99.90;;;;;;4984991;28;20379;-87
2021/03/25 04:35:10;;;;;;;125.07;84.70;;;1.00;99.90;;;;;;5011740;28;20415;-87
2021/03/25 04:37:36;;;;;;;125.93;88.27;;;1.00;99.90;;;;;;5011879;28;20418;-86
2021/03/25 04:40:07;;;;;;;133.30;90.03;;;1.00;99.90;;;;;;4994204;28;20383;-86
2021/03/25 04:42:33;;;;;;;131.35;88.03;;;0.90;99.90;;;;;;5011722;28;20392;-89
2021/03/25 04:45:17;;;;;;;126.33;87.83;;;1.00;99.90;;;;;;4994402;28;20442;-86
2021/03/25 04:47:46;;;;;;;120.65;83.88;;;1.00;99.90;;;;;;5011403;28;20418;-88
2021/03/25 04:50:18;;;;;;;121.60;85.87;;;0.90;99.90;;;;;;5011746;28;20499;-89
2021/03/25 04:52:44;;;;;;;120.82;84.18;;;0.90;99.90;;;;;;4993875;28;20379;-86
2021/03/25 04:55:36;;;;;;;123.67;85.47;;;0.90;99.90;;;;;;5011526;28;20390;-89
2021/03/25 04:58:08;;;;;;;115.00;79.68;;;0.90;99.90;;;;;;4990089;28;20771;-87
2021/03/25 05:00:42;;;;;;;121.20;83.68;;;0.90;99.90;;;;;;5011537;28;20384;-87
2021/03/25 05:03:21;;;;;;;117.60;82.05;;;0.90;99.90;;;;;;5011641;28;20415;-86
2021/03/25 05:05:47;;;;;;;122.15;86.45;;;0.90;99.90;;;;;;4993840;28;20458;-86
2021/03/25 05:08:18;;;;;;;115.57;81.75;;;0.90;99.90;;;;;;5011049;28;20379;-87
2021/03/25 05:11:02;;;;;;;127.28;85.32;;;0.90;99.90;;;;;;4993703;28;20388;-86
2021/03/25 05:13:37;;;;;;;128.10;87.25;;;0.90;99.90;;;;;;4993624;28;20395;-85
2021/03/25 05:16:12;;;;;;;130.60;87.82;;;0.90;99.90;;;;;;4993548;28;20395;-89
2021/03/25 05:18:45;;;;;;;129.35;86.25;;;0.90;99.90;;;;;;4993533;28;20475;-87
2021/03/25 05:21:20;;;;;;;130.53;87.50;;;0.90;99.90;;;;;;5011028;28;20394;-88
2021/03/25 05:24:01;;;;;;;125.63;85.43;;;0.90;99.90;;;;;;4993603;28;20399;-89
2021/03/25 05:26:37;;;;;;;124.50;84.30;;;0.90;99.90;;;;;;5010985;28;20382;-88
2021/03/25 05:29:05;;;;;;;126.30;84.07;;;0.90;99.90;;;;;;4993519;28;20470;-90
2021/03/25 05:31:33;;;;;;;127.30;85.77;;;1.00;99.90;;;;;;4993445;28;20459;-87
2021/03/25 05:34:04;;;;;;;117.07;82.70;;;1.00;99.90;;;;;;4993540;28;20387;-88
2021/03/25 05:36:31;;;;;;;124.40;83.63;;;1.10;99.90;;;;;;4993330;28;20478;-91
2021/03/25 05:38:57;;;;;;;121.68;84.13;;;1.10;99.90;;;;;;4993401;28;20379;-89
2021/03/25 05:41:35;;;;;;;120.03;81.53;;;1.20;99.90;;;;;;4993524;28;20387;-88
2021/03/25 05:44:31;;;;;;;120.10;83.72;;;1.30;99.90;;;;;;5011277;28;20375;-86
2021/03/25 05:47:22;;;;;;;124.75;83.25;;;1.30;99.90;;;;;;5010905;28;20735;-88
2021/03/25 05:50:09;;;;;;;116.88;80.18;;;1.30;99.90;;;;;;4999076;28;20397;-86
2021/03/25 05:53:01;;;;;;;107.57;77.32;;;1.50;99.90;;;;;;4993386;28;20832;-89
2021/03/25 05:55:43;;;;;;;109.13;76.22;;;1.60;99.90;;;;;;4992776;28;20433;-88
2021/03/25 05:58:30;;;;;;;119.43;82.22;;;1.70;99.90;;;;;;4993248;28;20403;-88
2021/03/25 06:01:24;;;;;;;117.68;83.30;;;1.50;99.90;;;;;;5010549;28;20406;-85
2021/03/25 06:04:20;;;;;;;111.40;78.70;;;1.50;99.90;;;;;;4992679;28;20893;-83
2021/03/25 06:06:55;;;;;;;115.53;82.57;;;1.70;99.90;;;;;;4992046;28;20391;-87
2021/03/25 06:09:38;;;;;;;105.32;78.80;;;1.80;99.90;;;;;;4992802;28;20462;-82
2021/03/25 06:12:32;;;;;;;105.35;78.40;;;2.00;99.90;;;;;;4992156;28;20427;-86
2021/03/25 06:15:23;;;;;;;106.40;75.50;;;2.20;99.90;;;;;;5009696;28;20952;-83
2021/03/25 06:18:07;;;;;;;99.13;73.63;;;2.40;99.90;;;;;;5009715;28;20941;-83
2021/03/25 06:21:02;;;;;;;100.13;71.70;;;2.70;99.90;;;;;;5009575;28;20851;-85
2021/03/25 06:23:38;;;;;;;94.75;70.80;;;2.90;99.90;;;;;;5014460;28;20402;-83
2021/03/25 06:26:33;;;;;;;93.80;70.17;;;3.10;99.90;;;;;;4993507;28;20536;-81
2021/03/25 06:29:17;;;;;;;94.88;69.45;;;3.30;99.90;;;;;;5010572;28;20383;-85
2021/03/25 06:31:59;;;;;;;96.82;71.03;;;3.60;99.90;;;;;;5010460;28;20383;-86
2021/03/25 06:34:41;;;;;;;102.15;73.50;;;3.80;99.90;;;;;;4992738;28;20391;-85
2021/03/25 06:37:21;;;;;;;99.43;73.35;;;3.90;99.90;;;;;;4992533;28;20429;-83
2021/03/25 06:40:12;;;;;;;105.30;75.45;;;3.90;99.90;;;;;;4992508;28;20399;-83
2021/03/25 06:43:00;;;;;;;94.90;71.30;;;4.00;99.90;;;;;;4999375;28;20414;-87
2021/03/25 06:45:41;;;;;;;91.22;68.43;;;4.40;99.90;;;;;;4992069;28;20444;-85
2021/03/25 06:48:42;;;;;;;89.97;67.57;;;4.70;99.90;;;;;;4992492;28;20382;-86
2021/03/25 06:51:28;;;;;;;89.18;64.57;;;5.00;99.90;;;;;;4994732;28;20900;-87
2021/03/25 06:54:14;;;;;;;89.17;65.33;;;5.40;99.90;;;;;;4995875;28;20371;-85
2021/03/25 06:56:43;;;;;;;85.65;64.60;;;5.60;99.90;;;;;;5013626;28;20434;-84
2021/03/25 06:59:17;;;;;;;86.10;63.38;;;5.90;99.90;;;;;;5013329;28;20391;-84
2021/03/25 07:01:48;;;;;;;88.25;64.13;;;6.10;99.90;;;;;;5013482;28;20411;-84
2021/03/25 07:04:20;;;;;;;87.72;63.20;;;6.30;99.90;;;;;;4990620;28;20387;-85
2021/03/25 07:06:46;;;;;;;87.65;63.35;;;6.50;99.90;;;;;;5012862;28;20379;-84
2021/03/25 07:09:13;;;;;;;81.32;60.85;;;6.60;99.90;;;;;;5011493;28;20386;-83
2021/03/25 07:11:40;;;;;;;87.00;62.22;;;6.70;99.90;;;;;;5011524;28;20761;-83
2021/03/25 07:14:18;;;;;;;81.03;58.42;;;6.90;99.90;;;;;;4985858;28;20949;-82
2021/03/25 07:16:46;;;;;;;87.00;58.43;;;7.10;99.90;;;;;;4980592;28;20443;-84
2021/03/25 07:19:21;;;;;;;81.53;58.92;;;7.30;99.90;;;;;;4975187;28;20739;-84
2021/03/25 07:22:18;;;;;;;79.43;56.90;;;7.40;99.90;;;;;;4992475;28;20388;-84
2021/03/25 07:24:44;;;;;;;84.65;58.78;;;7.70;99.90;;;;;;4993051;28;20421;-85
2021/03/25 07:27:16;;;;;;;82.47;57.70;;;7.80;99.90;;;;;;4975673;28;20464;-85
2021/03/25 07:29:45;;;;;;;80.05;58.15;;;8.10;99.90;;;;;;4987726;28;20398;-85
2021/03/25 07:32:10;;;;;;;82.57;57.38;;;8.40;99.90;;;;;;5012736;28;20383;-83
2021/03/25 07:34:43;;;;;;;76.93;56.78;;;8.50;99.90;;;;;;4995338;28;21079;-84
2021/03/25 07:37:12;;;;;;;79.03;56.47;;;8.80;99.90;;;;;;5012835;28;20502;-83
2021/03/25 07:39:48;;;;;;;76.35;55.78;;;9.10;99.90;;;;;;4994293;28;20754;-86
2021/03/25 07:42:31;;;;;;;74.93;55.07;;;9.40;99.90;;;;;;4994574;28;20484;-85
2021/03/25 07:45:20;;;;;;;72.22;53.80;;;9.80;99.90;;;;;;5012922;28;20383;-86
2021/03/25 07:47:47;;;;;;;76.43;55.40;;;10.30;99.90;;;;;;4994777;28;20406;-84
2021/03/25 07:50:23;;;;;;;72.28;54.45;;;10.50;99.90;;;;;;5011522;28;20932;-83
2021/03/25 07:52:50;;;;;;;73.28;53.60;;;10.60;99.90;;;;;;4993851;28;20893;-83
2021/03/25 07:55:18;;;;;;;77.15;55.47;;;10.60;99.90;;;;;;5011307;28;20391;-85
2021/03/25 07:57:49;;;;;;;65.50;51.40;;;10.60;99.90;;;;;;5010847;28;20392;-86
2021/03/25 08:00:28;;;;;;;76.88;53.95;;;10.90;99.90;;;;;;5013141;28;20396;-84
2021/03/25 08:03:18;;;;;;;72.82;54.33;;;11.10;99.90;;;;;;5011286;28;20379;-85
2021/03/25 08:05:47;;;;;;;73.88;54.83;;;11.10;99.90;;;;;;4994926;28;20442;-85
2021/03/25 08:08:30;;;;;;;78.25;55.08;;;11.30;99.90;;;;;;5012596;28;20478;-85
2021/03/25 08:11:19;;;;;;;75.85;54.55;;;11.50;99.90;;;;;;5012740;28;20390;-85
2021/03/25 08:13:51;;;;;;;70.00;51.15;;;11.60;99.90;;;;;;4995017;28;20422;-88
2021/03/25 08:16:17;;;;;;;77.38;55.10;;;11.70;99.90;;;;;;5012548;28;20865;-83
2021/03/25 08:19:02;;;;;;;71.20;54.25;;;11.70;99.90;;;;;;5012374;28;20407;-84
2021/03/25 08:21:52;;;;;;;72.05;54.88;;;11.80;99.90;;;;;;4994999;28;20725;-83
2021/03/25 08:24:35;;;;;;;74.20;55.05;;;11.50;99.90;;;;;;5021910;28;20387;-85
2021/03/25 08:27:29;;;;;;;73.57;55.88;;;11.60;99.90;;;;;;5031778;28;20407;-86
2021/03/25 08:30:19;;;;;;;78.65;56.97;;;11.30;99.90;;;;;;5012299;28;20397;-83
2021/03/25 08:33:10;;;;;;;75.13;55.75;;;11.00;99.90;;;;;;5011645;28;20530;-87
2021/03/25 08:35:38;;;;;;;77.27;55.90;;;11.10;99.90;;;;;;5011740;28;20379;-85
2021/03/25 08:38:36;;;;;;;77.95;57.08;;;11.40;99.90;;;;;;4993733;28;20482;-80
2021/03/25 08:41:18;;;;;;;83.13;58.08;;;11.60;99.90;;;;;;5011357;28;20924;-84
2021/03/25 08:43:56;;;;;;;78.13;56.70;;;11.80;99.90;;;;;;4993860;28;20394;-82
2021/03/25 08:46:37;;;;;;;83.60;59.22;;;11.90;99.90;;;;;;4991257;28;20445;-84
2021/03/25 08:49:25;;;;;;;77.65;57.55;;;11.80;99.90;;;;;;5011575;28;20434;-89
2021/03/25 08:51:52;;;;;;;78.28;59.20;;;11.70;99.90;;;;;;4993428;28;20443;-85
2021/03/25 08:54:32;;;;;;;81.10;59.33;;;11.90;99.90;;;;;;5011640;28;20394;-87
2021/03/25 08:57:07;;;;;;;77.60;57.60;;;12.10;99.90;;;;;;4993616;28;20984;-87
2021/03/25 08:59:37;;;;;;;80.68;59.53;;;12.20;99.90;;;;;;4994017;28;20438;-88
2021/03/25 09:02:06;;;;;;;84.30;61.45;;;12.40;99.90;;;;;;5011411;28;20378;-85
2021/03/25 09:04:37;;;;;;;80.45;60.65;;;12.50;99.90;;;;;;4993011;28;20826;-87
2021/03/25 09:07:05;;;;;;;82.43;61.28;;;12.70;99.90;;;;;;4992987;28;20770;-86
2021/03/25 09:09:49;;;;;;;85.95;62.90;;;12.70;99.90;;;;;;5010731;28;20390;-86
2021/03/25 09:12:31;;;;;;;81.25;60.88;;;12.90;99.90;;;;;;4992856;28;20482;-85
2021/03/25 09:15:01;;;;;;;78.10;59.58;;;13.10;99.90;;;;;;5007564;28;20881;-86
2021/03/25 09:17:59;;;;;;;78.95;58.53;;;13.40;99.90;;;;;;4985116;28;20415;-85
2021/03/25 09:20:35;;;;;;;79.15;60.58;;;13.60;99.90;;;;;;4984311;28;20449;-87
2021/03/25 09:23:45;;;;;;;83.45;60.78;;;13.80;99.90;;;;;;4992670;28;20431;-86
2021/03/25 09:26:11;;;;;;;82.47;61.83;;;13.60;99.90;;;;;;4989578;28;20407;-88
2021/03/25 09:29:06;;;;;;;80.47;60.33;;;13.40;99.90;;;;;;4992708;28;20395;-87
2021/03/25 09:32:01;;;;;;;73.43;59.45;;;13.40;99.90;;;;;;4991951;28;20430;-85
2021/03/25 09:34:44;;;;;;;77.10;59.97;;;13.60;99.90;;;;;;4992102;28;20410;-87
2021/03/25 09:37:23;;;;;;;79.10;61.03;;;13.90;99.90;;;;;;5010270;28;20483;-84
2021/03/25 09:40:10;;;;;;;79.88;59.35;;;14.10;99.90;;;;;;5010697;28;20406;-85
2021/03/25 09:42:36;;;;;;;78.72;60.67;;;14.30;99.90;;;;;;4994230;28;20487;-87
2021/03/25 09:45:31;;;;;;;78.82;59.83;;;14.40;99.90;;;;;;5009905;28;20479;-87
2021/03/25 09:48:03;;;;;;;78.22;59.53;;;14.20;99.90;;;;;;5010110;28;20391;-87
2021/03/25 09:50:30;;;;;;;80.88;61.53;;;14.00;99.90;;;;;;4991895;28;20490;-87
2021/03/25 09:53:18;;;;;;;80.55;59.25;;;14.10;99.90;;;;;;4992449;28;20382;-84
2021/03/25 09:56:18;;;;;;;77.15;59.08;;;14.30;99.90;;;;;;4992511;28;20391;-87
2021/03/25 09:58:47;;;;;;;75.28;56.78;;;14.50;99.90;;;;;;5010265;28;20426;-89
2021/03/25 10:01:38;;;;;;;76.53;57.95;;;14.60;99.90;;;;;;4992224;28;20495;-85
2021/03/25 10:04:29;;;;;;;73.65;56.55;;;14.70;99.90;;;;;;4992441;28;20517;-85
2021/03/25 10:06:59;;;;;;;73.07;55.23;;;14.70;99.90;;;;;;4990700;28;20776;-86
2021/03/25 10:09:49;;;;;;;72.55;55.80;;;14.80;99.90;;;;;;4983624;28;20415;-85
2021/03/25 10:13:15;;;;;;;71.30;54.78;;;15.00;99.90;;;;;;5009776;28;20398;-85
2021/03/25 10:15:50;;;;;;;70.90;56.33;;;15.00;99.90;;;;;;4906619;29;20447;-85
2021/03/25 10:18:15;;;;;;;72.43;54.43;;;14.90;99.90;;;;;;4903083;29;20425;-84
2021/03/25 10:20:44;;;;;;;72.47;55.90;;;15.00;99.90;;;;;;4952110;28;20775;-85
2021/03/25 10:23:26;;;;;;;67.57;51.78;;;15.20;99.90;;;;;;5012138;28;20856;-85
2021/03/25 10:26:03;;;;;;;59.30;45.50;;;15.40;99.90;;;;;;5015917;28;20474;-87
2021/03/25 10:28:38;;;;;;;59.03;46.25;;;15.60;99.90;;;;;;4995557;28;20461;-87
2021/03/25 10:31:13;;;;;;;57.97;43.72;;;15.70;99.90;;;;;;4992752;28;20405;-88
2021/03/25 10:33:39;;;;;;;55.45;43.33;;;15.70;99.90;;;;;;5009135;28;20414;-88
2021/03/25 10:36:14;;;;;;;59.47;44.97;;;15.60;99.90;;;;;;5013612;28;20418;-84
2021/03/25 10:38:45;;;;;;;57.03;43.42;;;15.60;99.90;;;;;;4995615;28;20413;-84
2021/03/25 10:41:20;;;;;;;59.15;45.85;;;15.50;99.90;;;;;;5005179;28;20426;-89
2021/03/25 10:43:50;;;;;;;58.80;45.70;;;15.60;99.90;;;;;;4993820;28;20390;-88
2021/03/25 10:46:37;;;;;;;60.83;46.45;;;15.80;99.90;;;;;;4996119;28;20391;-89
2021/03/25 10:49:06;;;;;;;61.42;48.20;;;15.50;99.90;;;;;;5012911;28;20466;-90
2021/03/25 10:51:38;;;;;;;62.33;48.08;;;15.20;99.90;;;;;;4995517;28;20869;-88
2021/03/25 10:54:15;;;;;;;60.58;47.85;;;15.10;99.90;;;;;;4995788;28;20395;-88
2021/03/25 10:56:40;;;;;;;65.10;49.90;;;15.30;99.90;;;;;;5003151;28;20887;-89
2021/03/25 10:59:16;;;;;;;65.07;49.70;;;15.20;99.90;;;;;;5015596;28;20393;-88
2021/03/25 11:01:50;;;;;;;60.15;46.85;;;15.20;99.90;;;;;;4995236;28;20399;-88
2021/03/25 11:04:22;;;;;;;64.53;48.90;;;15.20;99.90;;;;;;5004410;28;20810;-88
2021/03/25 11:06:49;;;;;;;64.55;48.47;;;15.10;99.90;;;;;;4999229;28;20399;-87
2021/03/25 11:09:27;;;;;;;60.77;47.67;;;15.10;99.90;;;;;;5000844;28;20967;-89
2021/03/25 11:12:25;;;;;;;60.65;46.40;;;15.10;99.90;;;;;;4998212;28;20419;-89
2021/03/25 11:14:57;;;;;;;61.17;46.65;;;15.00;99.90;;;;;;4995013;28;20442;-86
2021/03/25 11:17:32;;;;;;;59.53;46.10;;;15.20;99.90;;;;;;5018680;28;20403;-86
2021/03/25 11:20:00;;;;;;;61.00;45.58;;;15.20;99.90;;;;;;5000546;28;20411;-87
2021/03/25 11:22:29;;;;;;;62.70;46.42;;;15.20;99.90;;;;;;4996770;28;20429;-85
2021/03/25 11:24:58;;;;;;;62.30;45.85;;;15.20;99.90;;;;;;5019269;28;20464;-87
2021/03/25 11:27:28;;;;;;;62.65;45.47;;;15.40;99.90;;;;;;5018976;28;20381;-85
2021/03/25 11:30:20;;;;;;;55.33;43.40;;;15.60;99.90;;;;;;4991714;28;20424;-85
2021/03/25 11:32:51;;;;;;;74.97;44.87;;;15.80;99.90;;;;;;5014870;28;20395;-87
2021/03/25 11:35:34;;;;;;;59.22;45.20;;;15.80;99.90;;;;;;5002776;28;20382;-85
2021/03/25 11:38:15;;;;;;;55.90;44.20;;;15.70;99.90;;;;;;4994199;28;20464;-85
2021/03/25 11:40:44;;;;;;;58.97;44.50;;;15.50;99.90;;;;;;5006739;28;20855;-84
2021/03/25 11:43:14;;;;;;;57.67;43.50;;;15.40;99.90;;;;;;4994368;28;20383;-85
2021/03/25 11:45:44;;;;;;;55.88;43.08;;;15.50;99.90;;;;;;5011720;28;20383;-86
2021/03/25 11:48:27;;;;;;;58.50;44.42;;;15.60;99.90;;;;;;4994230;28;20386;-85
2021/03/25 11:50:56;;;;;;;54.30;42.45;;;15.80;99.90;;;;;;4991271;28;20841;-85
2021/03/25 11:53:40;;;;;;;56.50;43.37;;;15.80;99.90;;;;;;4978552;28;20402;-84
2021/03/25 11:56:18;;;;;;;54.70;42.83;;;15.90;99.90;;;;;;4998914;28;20749;-85
2021/03/25 11:58:59;;;;;;;58.80;43.00;;;16.10;99.90;;;;;;5012863;28;20395;-83
2021/03/25 12:01:27;;;;;;;56.80;44.30;;;16.10;99.90;;;;;;5011812;28;20384;-86
2021/03/25 12:04:02;;;;;;;59.53;44.35;;;16.20;99.90;;;;;;5011565;28;20383;-84
2021/03/25 12:06:32;;;;;;;61.25;44.47;;;16.10;99.90;;;;;;5011450;28;20383;-87
2021/03/25 12:09:17;;;;;;;58.10;43.63;;;16.20;99.90;;;;;;5011478;28;20490;-86
2021/03/25 12:11:45;;;;;;;54.67;43.95;;;16.30;99.90;;;;;;5009743;28;20488;-86
2021/03/25 12:14:11;;;;;;;56.08;44.03;;;16.20;99.80;;;;;;5013010;28;20410;-86
2021/03/25 12:16:37;;;;;;;57.35;43.83;;;16.20;99.70;;;;;;4990669;28;20396;-86
2021/03/25 12:19:05;;;;;;;53.83;42.85;;;16.30;99.90;;;;;;4993482;28;20750;-87
2021/03/25 12:21:31;;;;;;;58.00;44.45;;;16.40;99.10;;;;;;4990705;28;20872;-86
2021/03/25 12:24:01;;;;;;;57.53;42.97;;;16.10;99.00;;;;;;5007177;28;20434;-88
2021/03/25 12:26:28;;;;;;;55.77;43.33;;;16.10;99.90;;;;;;4995018;28;20376;-86
2021/03/25 12:28:55;;;;;;;58.75;44.90;;;16.20;99.90;;;;;;4989959;28;20389;-86
2021/03/25 12:31:23;;;;;;;56.70;45.17;;;16.20;98.90;;;;;;5001883;28;20411;-86
2021/03/25 12:33:50;;;;;;;56.40;44.75;;;16.00;99.30;;;;;;4993290;28;20379;-86
2021/03/25 12:36:18;;;;;;;61.83;45.55;;;16.20;99.90;;;;;;4993484;28;20827;-86
2021/03/25 12:38:45;;;;;;;59.30;45.28;;;16.10;98.80;;;;;;4993051;28;20723;-85
2021/03/25 12:41:27;;;;;;;59.27;45.70;;;16.10;99.20;;;;;;5010732;28;20399;-89
2021/03/25 12:43:52;;;;;;;55.90;45.22;;;16.10;99.30;;;;;;5010679;28;20391;-86
2021/03/25 12:46:18;;;;;;;61.42;46.92;;;16.20;98.90;;;;;;5010386;28;20391;-86
2021/03/25 12:48:43;;;;;;;58.03;44.83;;;16.20;99.50;;;;;;4992651;28;20384;-85
2021/03/25 12:51:15;;;;;;;61.95;46.83;;;16.30;99.40;;;;;;5010811;28;20422;-84
2021/03/25 12:53:42;;;;;;;62.75;46.40;;;16.30;99.90;;;;;;4992929;28;20466;-86
2021/03/25 12:56:15;;;;;;;59.97;46.57;;;16.40;99.60;;;;;;5010715;28;20371;-89
2021/03/25 12:58:43;;;;;;;61.90;46.65;;;16.40;99.40;;;;;;5008352;28;20387;-88
2021/03/25 13:01:12;;;;;;;64.05;46.95;;;16.20;99.30;;;;;;4982630;28;20408;-88
2021/03/25 13:03:40;;;;;;;60.22;46.15;;;16.30;99.70;;;;;;5021835;28;20871;-92
2021/03/25 13:06:08;;;;;;;58.50;46.38;;;16.40;99.60;;;;;;4991460;28;20394;-90
2021/03/25 13:08:33;;;;;;;62.38;47.03;;;16.40;99.90;;;;;;4991001;28;20407;-88
2021/03/25 13:10:59;;;;;;;63.55;47.30;;;16.50;99.90;;;;;;5010433;28;20885;-90